Time;durP1;ratioP1;P1;durP2;ratioP2;P2;SDS_P1;SDS_P2;PMS_P1;PMS_P2;Temp;Humidity;BMP_temperature;BMP_pressure;BME280_temperature;BME280_humidity;BME280_pressure;Samples;Min_cycle;Max_cycle;Signal;HPM_P1;HPM_P2
2022/01/18 00:00:46;;;;;;;29.48;11.20;;;;;;;3.37;92.92;103706.72;5074222;28;20438;-64
2022/01/18 00:03:12;;;;;;;38.78;11.98;;;;;;;3.35;92.75;103694.41;5073168;28;20025;-64
2022/01/18 00:05:38;;;;;;;35.55;10.40;;;;;;;3.39;92.65;103705.00;5073247;28;20549;-64
2022/01/18 00:08:04;;;;;;;25.63;10.63;;;;;;;3.47;93.42;103717.38;5072769;28;20403;-64
2022/01/18 00:10:32;;;;;;;29.00;11.75;;;;;;;3.47;93.17;103712.09;5074145;28;20100;-64
2022/01/18 00:15:57;;;;;;;28.23;10.70;;;;;;;3.59;93.18;103715.78;5074017;28;20024;-64
2022/01/18 00:18:22;;;;;;;35.63;11.68;;;;;;;3.64;93.51;103715.84;5073583;28;20369;-64
2022/01/18 00:23:20;;;;;;;32.88;11.23;;;;;;;3.71;94.16;103707.16;5073376;28;20567;-64
2022/01/18 00:25:53;;;;;;;22.13;9.85;;;;;;;3.75;94.13;103716.84;5074135;28;20031;-64
2022/01/18 00:28:19;;;;;;;27.33;10.27;;;;;;;3.82;93.98;103717.78;5071815;28;20391;-64
2022/01/18 00:35:57;;;;;;;39.20;10.55;;;;;;;3.91;94.10;103731.06;5072430;28;20032;-64
2022/01/18 00:38:45;;;;;;;38.67;11.18;;;;;;;3.94;95.03;103728.50;5072551;28;20035;-64
2022/01/18 00:41:11;;;;;;;29.15;12.05;;;;;;;3.91;94.41;103725.78;5072409;28;20506;-64
2022/01/18 00:43:37;;;;;;;39.90;12.50;;;;;;;3.97;94.56;103728.53;5071681;28;20387;-64
2022/01/18 00:46:02;;;;;;;33.90;10.70;;;;;;;4.01;95.13;103727.69;5070977;28;20020;-64
2022/01/18 00:48:32;;;;;;;32.63;10.25;;;;;;;4.00;94.32;103736.47;5070888;28;20031;-64
2022/01/18 00:50:58;;;;;;;35.42;10.60;;;;;;;4.00;94.51;103739.09;5088862;28;20034;-64
2022/01/18 00:53:30;;;;;;;34.72;12.18;;;;;;;4.04;95.04;103748.78;5072436;28;20024;-64
2022/01/18 00:58:31;;;;;;;44.40;11.70;;;;;;;4.16;95.02;103745.41;5072348;28;20399;-64
2022/01/18 01:00:56;;;;;;;29.23;10.70;;;;;;;4.15;94.53;103751.53;5071486;28;20095;-64
2022/01/18 01:03:24;;;;;;;32.75;11.48;;;;;;;4.14;95.41;103746.25;5072592;28;20436;-64
2022/01/18 01:05:50;;;;;;;31.08;11.63;;;;;;;4.17;95.16;103747.16;5071634;28;20032;-63
2022/01/18 01:08:15;;;;;;;33.05;12.38;;;;;;;4.17;94.98;103746.28;5072247;28;20097;-64
2022/01/18 01:10:41;;;;;;;35.60;11.75;;;;;;;4.19;94.50;103744.53;5072083;28;20028;-63
2022/01/18 01:13:08;;;;;;;27.58;11.70;;;;;;;4.26;94.72;103746.38;5072345;28;20028;-63
2022/01/18 01:15:44;;;;;;;32.50;11.60;;;;;;;4.27;94.76;103741.13;5071965;28;20422;-63
2022/01/18 01:37:13;;;;;;;35.03;12.57;;;;;;;4.32;95.99;103741.16;5072116;28;20566;-63
2022/01/18 01:44:55;;;;;;;39.28;12.77;;;;;;;4.33;96.19;103735.91;5072264;28;20035;-63
2022/01/18 01:47:23;;;;;;;31.70;11.85;;;;;;;4.40;95.96;103735.97;5053911;28;20123;-63
2022/01/18 01:49:51;;;;;;;45.25;13.23;;;;;;;4.40;96.06;103735.97;5072097;28;20432;-63
2022/01/18 01:52:22;;;;;;;54.05;14.25;;;;;;;4.33;96.12;103729.75;5071201;28;20024;-63
2022/01/18 01:54:47;;;;;;;50.22;14.50;;;;;;;4.36;96.28;103737.69;5072156;28;20036;-63
2022/01/18 01:57:13;;;;;;;36.95;12.68;;;;;;;4.32;96.50;103738.50;5071088;28;20040;-63
2022/01/18 01:59:40;;;;;;;38.58;13.80;;;;;;;4.35;96.40;103741.19;5070668;28;20076;-63
2022/01/18 02:02:06;;;;;;;34.80;14.02;;;;;;;4.38;96.57;103745.59;5070848;28;20115;-63
2022/01/18 02:04:32;;;;;;;47.03;15.35;;;;;;;4.37;97.06;103746.47;5070213;28;20546;-63
2022/01/18 02:06:57;;;;;;;47.08;14.02;;;;;;;4.39;96.64;103736.84;5071106;28;20028;-63
2022/01/18 02:09:23;;;;;;;42.72;14.30;;;;;;;4.43;96.97;103743.91;5071872;28;20073;-63
2022/01/18 02:11:51;;;;;;;43.60;15.23;;;;;;;4.44;96.54;103750.94;5070101;28;20414;-63
2022/01/18 02:14:21;;;;;;;46.58;15.05;;;;;;;4.37;96.95;103730.66;5070108;28;20056;-63
2022/01/18 02:22:17;;;;;;;43.17;15.68;;;;;;;4.39;97.31;103734.22;5071076;28;20051;-63
2022/01/18 02:24:42;;;;;;;42.42;16.52;;;;;;;4.41;96.91;103743.00;5071070;28;20032;-63
2022/01/18 02:27:08;;;;;;;46.55;15.80;;;;;;;4.43;97.62;103743.91;5069396;28;20503;-63
2022/01/18 02:29:33;;;;;;;42.33;16.10;;;;;;;4.45;97.36;103742.16;5070781;28;20107;-63
2022/01/18 02:32:01;;;;;;;43.80;16.38;;;;;;;4.48;97.93;103734.28;5070297;28;20113;-63
2022/01/18 02:34:27;;;;;;;54.17;15.90;;;;;;;4.46;97.67;103733.38;5070485;28;20026;-63
2022/01/18 02:36:54;;;;;;;39.38;16.02;;;;;;;4.51;97.29;103742.22;5069580;28;20131;-63
2022/01/18 02:39:22;;;;;;;40.35;15.05;;;;;;;4.51;97.29;103726.41;5069562;28;20025;-63
2022/01/18 02:41:58;;;;;;;45.25;15.18;;;;;;;4.50;97.38;103722.91;5070195;28;20041;-63
2022/01/18 02:44:24;;;;;;;45.15;15.52;;;;;;;4.51;97.39;103724.66;5069747;28;20039;-63
2022/01/18 02:46:50;;;;;;;36.92;16.17;;;;;;;4.56;97.65;103727.34;5071212;28;20020;-63
2022/01/18 02:49:17;;;;;;;43.30;15.32;;;;;;;4.51;97.82;103724.66;5069269;28;20034;-63
2022/01/18 02:51:47;;;;;;;37.58;15.38;;;;;;;4.52;97.34;103729.03;5070157;28;20020;-63
2022/01/18 02:54:13;;;;;;;;;;;;;;;4.64;96.66;103728.25;5071411;28;20103;-63
2022/01/18 02:56:54;;;;;;;46.00;16.30;;;;;;;4.49;97.00;103722.88;5069797;28;19919;-63
2022/01/18 02:59:34;;;;;;;38.78;14.77;;;;;;;4.57;97.63;103728.22;5069629;28;20035;-63
2022/01/18 03:04:49;;;;;;;39.55;16.80;;;;;;;4.52;97.17;103723.78;5070781;28;20040;-63
2022/01/18 03:07:15;;;;;;;39.13;15.90;;;;;;;4.57;97.00;103725.59;5068910;28;20025;-63
2022/01/18 03:09:43;;;;;;;38.47;15.55;;;;;;;4.55;97.80;103725.56;5070852;28;20079;-63
2022/01/18 03:12:09;;;;;;;41.03;17.40;;;;;;;4.60;97.08;103729.13;5069434;28;20029;-63
2022/01/18 03:14:35;;;;;;;46.53;16.55;;;;;;;4.62;97.12;103729.13;5072010;28;20048;-63
2022/01/18 03:17:01;;;;;;;36.95;16.20;;;;;;;4.61;97.30;103740.53;5063271;28;20502;-63
2022/01/18 03:19:27;;;;;;;41.42;18.00;;;;;;;4.56;97.28;103729.97;5074863;28;20025;-63
2022/01/18 03:21:58;;;;;;;38.00;15.88;;;;;;;4.54;97.43;103740.50;5074551;28;20060;-63
2022/01/18 03:29:33;;;;;;;40.33;17.48;;;;;;;4.50;97.23;103737.81;5073303;28;20051;-63
2022/01/18 03:31:58;;;;;;;38.72;17.27;;;;;;;4.54;97.57;103742.25;5073191;28;20032;-63
2022/01/18 03:34:24;;;;;;;32.53;16.02;;;;;;;4.50;97.81;103736.06;5073291;28;20048;-63
2022/01/18 03:36:50;;;;;;;36.40;16.95;;;;;;;4.52;97.88;103744.84;5074649;28;20032;-63
2022/01/18 03:39:15;;;;;;;39.45;16.83;;;;;;;4.57;97.18;103746.66;5072716;28;20032;-63
2022/01/18 03:41:41;;;;;;;38.88;17.08;;;;;;;4.57;97.37;103738.75;5056140;28;20044;-63
2022/01/18 03:44:06;;;;;;;34.53;15.85;;;;;;;4.55;97.66;103741.38;5056432;28;20040;-63
2022/01/18 03:46:36;;;;;;;37.47;16.98;;;;;;;4.55;97.35;103734.34;5072937;28;20031;-63
2022/01/18 03:49:04;;;;;;;36.20;16.92;;;;;;;4.58;97.32;103735.25;5072685;28;20053;-63
2022/01/18 03:51:29;;;;;;;40.10;17.55;;;;;;;4.52;98.12;103734.31;5072228;28;20468;-63
2022/01/18 03:53:55;;;;;;;37.22;17.40;;;;;;;4.52;97.44;103749.25;5073611;28;20036;-63
2022/01/18 03:56:20;;;;;;;35.60;17.60;;;;;;;4.55;97.86;103752.78;5073195;28;20036;-63
2022/01/18 03:58:46;;;;;;;34.08;16.27;;;;;;;4.60;97.84;103758.13;5073340;28;20390;-63
2022/01/18 04:01:12;;;;;;;34.63;17.23;;;;;;;4.55;97.35;103752.78;5072313;28;20044;-63
2022/01/18 04:03:40;;;;;;;35.70;17.58;;;;;;;4.59;97.62;103761.63;5072274;28;20022;-63
2022/01/18 04:06:05;;;;;;;35.15;16.80;;;;;;;4.51;97.55;103748.38;5072543;28;20471;-63
2022/01/18 04:08:30;;;;;;;36.03;18.20;;;;;;;4.48;97.17;103744.84;5073513;28;20020;-63
2022/01/18 04:10:56;;;;;;;32.92;17.58;;;;;;;4.52;97.28;103760.66;5072462;28;20062;-63
2022/01/18 04:13:21;;;;;;;31.38;17.67;;;;;;;4.50;96.92;103759.78;5073364;28;20385;-63
2022/01/18 04:15:47;;;;;;;32.42;17.40;;;;;;;4.49;97.71;103763.28;5073065;28;20498;-63
2022/01/18 04:29:03;;;;;;;33.38;17.88;;;;;;;4.43;98.05;103759.72;5071644;28;20471;-63
2022/01/18 04:31:29;;;;;;;36.50;18.13;;;;;;;4.48;97.97;103772.06;5073311;28;20032;-63
2022/01/18 04:33:56;;;;;;;41.72;19.40;;;;;;;4.46;97.42;103767.66;5070933;28;20126;-63
2022/01/18 04:36:22;;;;;;;36.60;18.15;;;;;;;4.50;97.81;103761.53;5072798;28;20438;-63
2022/01/18 04:38:47;;;;;;;39.85;20.13;;;;;;;4.49;97.61;103749.22;5054725;28;20032;-63
2022/01/18 04:41:17;;;;;;;41.30;20.15;;;;;;;4.50;97.89;103769.44;5072681;28;20436;-63
2022/01/18 04:44:05;;;;;;;40.67;18.38;;;;;;;4.51;97.32;103766.81;5071977;28;20441;-63
2022/01/18 04:49:22;;;;;;;38.05;20.05;;;;;;;4.48;97.29;103764.16;5055524;28;20044;-63
2022/01/18 04:51:50;;;;;;;45.92;21.40;;;;;;;4.46;98.30;103770.28;5071539;28;20039;-63
2022/01/18 04:54:18;;;;;;;46.05;20.10;;;;;;;4.44;97.20;103762.38;5071526;28;20391;-63
2022/01/18 04:59:11;;;;;;;42.03;19.52;;;;;;;4.49;97.95;103765.91;5072004;28;20056;-63
2022/01/18 05:01:41;;;;;;;40.33;19.58;;;;;;;4.49;98.24;103770.31;5071436;28;20535;-63
2022/01/18 05:04:07;;;;;;;47.28;20.48;;;;;;;4.49;97.77;103771.19;5072063;28;20024;-63
2022/01/18 05:06:33;;;;;;;46.58;20.38;;;;;;;4.50;97.37;103778.25;5071265;28;20070;-63
2022/01/18 05:09:06;;;;;;;50.08;20.95;;;;;;;4.55;97.38;103779.16;5071029;28;20021;-63
2022/01/18 05:11:36;;;;;;;49.25;21.05;;;;;;;4.47;97.71;103761.50;5072209;28;20510;-63
2022/01/18 05:25:05;;;;;;;49.08;20.73;;;;;;;4.58;97.78;103785.31;5071102;28;20047;-63
2022/01/18 05:27:30;;;;;;;52.90;20.88;;;;;;;4.57;97.32;103776.53;5072436;28;20024;-63
2022/01/18 05:29:55;;;;;;;46.50;20.58;;;;;;;4.61;97.99;103783.59;5072830;28;20079;-64
2022/01/18 05:32:21;;;;;;;44.50;19.77;;;;;;;4.57;97.45;103786.19;5071796;28;20024;-63
2022/01/18 05:34:55;;;;;;;47.30;21.48;;;;;;;4.59;97.37;103781.81;5071541;28;20094;-63
2022/01/18 05:37:22;;;;;;;42.17;19.90;;;;;;;4.56;96.86;103785.31;5069973;28;20040;-64
2022/01/18 05:39:48;;;;;;;42.83;19.63;;;;;;;4.54;97.33;103790.56;5070695;28;20063;-63
2022/01/18 05:42:13;;;;;;;51.92;21.02;;;;;;;4.51;97.19;103794.94;5071122;28;20457;-63
2022/01/18 05:44:39;;;;;;;51.45;20.38;;;;;;;4.49;97.77;103781.72;5070005;28;20038;-63
2022/01/18 05:47:07;;;;;;;43.08;19.38;;;;;;;4.48;98.16;103779.97;5071038;28;20112;-64
2022/01/18 05:49:32;;;;;;;52.90;20.63;;;;;;;4.45;97.22;103769.41;5071930;28;20386;-63
2022/01/18 05:51:58;;;;;;;44.45;19.92;;;;;;;4.44;97.78;103764.09;5070144;28;20028;-63
2022/01/18 05:54:23;;;;;;;49.45;20.10;;;;;;;4.50;97.91;103777.34;5069383;28;20533;-63
2022/01/18 05:56:49;;;;;;;48.78;19.45;;;;;;;4.45;97.62;103768.53;5070075;28;20040;-63
2022/01/18 05:59:21;;;;;;;48.83;19.85;;;;;;;4.55;97.69;103788.81;5069992;28;20060;-63
2022/01/18 06:01:48;;;;;;;47.53;20.45;;;;;;;4.47;97.67;103767.66;5070756;28;20056;-63
2022/01/18 06:06:50;;;;;;;42.22;19.45;;;;;;;4.49;98.06;103776.44;5069962;28;20032;-63
2022/01/18 06:07:02;;;;;;;52.85;20.67;;;;;;;4.48;97.50;103771.19;5069763;28;20071;-63
2022/01/18 06:09:29;;;;;;;44.00;19.30;;;;;;;4.50;97.89;103778.25;5069370;28;20028;-63
2022/01/18 06:11:55;;;;;;;42.17;19.75;;;;;;;4.50;97.88;103782.59;5070887;28;20033;-63
2022/01/18 06:14:20;;;;;;;53.63;20.08;;;;;;;4.51;97.51;103774.72;5070902;28;20081;-63
2022/01/18 06:16:46;;;;;;;48.55;20.08;;;;;;;4.54;97.72;103776.50;5071179;28;20020;-63
2022/01/18 06:19:12;;;;;;;53.63;21.73;;;;;;;4.53;97.34;103780.03;5071096;28;20467;-63
2022/01/18 06:21:37;;;;;;;49.92;21.42;;;;;;;4.53;97.62;103774.75;5070823;28;20115;-63
2022/01/18 06:24:07;;;;;;;55.17;20.77;;;;;;;4.49;98.38;103778.22;5070780;28;20036;-63
2022/01/18 06:26:33;;;;;;;54.97;20.88;;;;;;;4.50;98.11;103772.97;5070464;28;20055;-63
2022/01/18 06:29:00;;;;;;;48.80;20.20;;;;;;;4.51;97.79;103782.63;5071156;28;20483;-63
2022/01/18 06:31:28;;;;;;;43.58;19.20;;;;;;;4.52;98.30;103784.38;5070593;28;20017;-63
2022/01/18 06:33:53;;;;;;;46.53;19.63;;;;;;;4.51;98.19;103777.38;5071241;28;20028;-63
2022/01/18 06:36:21;;;;;;;42.90;19.15;;;;;;;4.54;97.80;103780.03;5070816;28;20132;-63
2022/01/18 06:38:46;;;;;;;46.83;19.83;;;;;;;4.52;98.11;103779.13;5070627;28;20094;-63
2022/01/18 06:41:12;;;;;;;52.38;21.00;;;;;;;4.51;97.65;103774.72;5070423;28;20024;-63
2022/01/18 06:43:37;;;;;;;51.08;20.88;;;;;;;4.58;98.21;103777.41;5070711;28;20023;-63
2022/01/18 06:46:03;;;;;;;48.35;21.55;;;;;;;4.57;98.44;103776.53;5070201;28;20111;-63
2022/01/18 06:48:28;;;;;;;47.90;21.20;;;;;;;4.54;97.71;103779.16;5070348;28;20024;-63
2022/01/18 06:50:56;;;;;;;54.22;20.92;;;;;;;4.54;98.19;103774.75;5074606;28;20082;-64
2022/01/18 06:53:22;;;;;;;53.33;23.02;;;;;;;4.52;97.67;103780.88;5073236;28;20028;-63
2022/01/18 06:55:52;;;;;;;44.28;20.73;;;;;;;4.54;98.22;103789.69;5056530;28;20505;-63
2022/01/18 06:58:17;;;;;;;;;;;;;;;4.63;98.30;103791.53;5073904;28;20055;-63
2022/01/18 07:00:42;;;;;;;48.40;21.77;;;;;;;4.53;98.54;103793.22;5073761;28;20482;-63
2022/01/18 07:03:08;;;;;;;56.10;22.40;;;;;;;4.54;97.64;103790.56;5074424;28;20032;-63
2022/01/18 07:05:37;;;;;;;53.65;24.00;;;;;;;4.54;97.87;103784.41;5074579;28;20422;-63
2022/01/18 07:08:02;;;;;;;46.58;21.25;;;;;;;4.48;98.17;103787.88;5072951;28;20365;-63
2022/01/18 07:10:31;;;;;;;58.30;22.55;;;;;;;4.48;98.13;103800.16;5074248;28;20114;-63
2022/01/18 07:12:58;;;;;;;53.75;23.38;;;;;;;4.49;98.54;103794.03;5073829;28;20032;-63
2022/01/18 07:15:23;;;;;;;53.15;22.30;;;;;;;4.51;98.21;103793.19;5070766;28;20082;-64
2022/01/18 07:17:49;;;;;;;57.15;23.25;;;;;;;4.54;98.61;103802.88;5073359;28;20025;-63
2022/01/18 07:20:14;;;;;;;59.50;24.27;;;;;;;4.51;98.25;103798.44;5074113;28;20050;-63
2022/01/18 07:22:43;;;;;;;52.17;23.10;;;;;;;4.50;98.15;103803.69;5074514;28;20029;-63
2022/01/18 07:25:13;;;;;;;49.47;21.27;;;;;;;4.46;97.97;103800.13;5073470;28;20033;-63
2022/01/18 07:27:38;;;;;;;51.92;22.77;;;;;;;4.44;98.25;103798.34;5074130;28;20600;-64
2022/01/18 07:30:04;;;;;;;51.58;22.50;;;;;;;4.47;98.12;103804.56;5071844;28;20107;-63
2022/01/18 07:32:32;;;;;;;50.22;22.70;;;;;;;4.50;97.81;103815.13;5056725;28;20043;-63
2022/01/18 07:34:58;;;;;;;49.53;22.60;;;;;;;4.49;98.82;103813.34;5073806;28;20036;-63
2022/01/18 07:37:24;;;;;;;47.60;21.83;;;;;;;4.51;98.58;103810.75;5072878;28;20025;-63
2022/01/18 07:39:53;;;;;;;46.13;21.58;;;;;;;4.51;98.61;103814.25;5072576;28;20036;-63
2022/01/18 07:42:24;;;;;;;51.97;21.13;;;;;;;4.51;98.29;103810.75;5073391;28;20024;-63
2022/01/18 07:44:50;;;;;;;55.53;24.30;;;;;;;4.59;98.85;103813.44;5073635;28;20441;-63
2022/01/18 07:47:15;;;;;;;51.05;22.50;;;;;;;4.56;98.09;103816.97;5073113;28;20040;-63
2022/01/18 07:49:42;;;;;;;52.30;22.88;;;;;;;4.57;98.69;103821.34;5073402;28;20024;-63
2022/01/18 07:52:07;;;;;;;61.92;23.40;;;;;;;4.59;98.26;103818.72;5071617;28;20036;-63
2022/01/18 07:54:32;;;;;;;54.78;23.63;;;;;;;4.57;98.59;103815.19;5073839;28;20471;-63
2022/01/18 07:56:58;;;;;;;51.55;23.35;;;;;;;4.48;98.68;103808.06;5073169;28;20021;-63
2022/01/18 07:59:27;;;;;;;58.17;22.98;;;;;;;4.48;98.54;103808.97;5072930;28;20066;-63
2022/01/18 08:01:52;;;;;;;51.65;22.77;;;;;;;4.54;99.12;103814.28;5072575;28;20044;-63
2022/01/18 08:04:18;;;;;;;51.55;23.27;;;;;;;4.61;98.69;103820.50;5074527;28;20032;-63
2022/01/18 08:06:44;;;;;;;51.53;23.25;;;;;;;4.63;98.78;103823.16;5073032;28;20021;-63
2022/01/18 08:09:09;;;;;;;49.30;22.52;;;;;;;4.62;98.35;103821.38;5073495;28;20494;-63
2022/01/18 08:11:35;;;;;;;47.63;22.40;;;;;;;4.60;99.18;103813.47;5074412;28;20094;-63
2022/01/18 08:14:02;;;;;;;51.85;22.77;;;;;;;4.67;98.55;103833.72;5073300;28;20490;-63
2022/01/18 08:18:56;;;;;;;58.92;25.55;;;;;;;4.71;98.50;103821.50;5073477;28;20039;-63
2022/01/18 08:21:22;;;;;;;55.80;24.73;;;;;;;4.72;98.63;103826.75;5073834;28;20024;-63
2022/01/18 08:23:49;;;;;;;55.58;24.42;;;;;;;4.72;98.86;103818.84;5073292;28;20047;-63
2022/01/18 08:26:15;;;;;;;68.05;25.50;;;;;;;4.71;98.35;103817.09;5074264;28;20522;-63
2022/01/18 08:28:40;;;;;;;65.72;24.23;;;;;;;4.72;98.17;103825.88;5073181;28;20009;-63
2022/01/18 08:31:07;;;;;;;65.60;22.23;;;;;;;4.76;98.23;103825.03;5072785;28;20028;-63
2022/01/18 08:33:33;;;;;;;58.53;24.15;;;;;;;4.78;98.47;103818.03;5072675;28;20059;-63
2022/01/18 08:36:03;;;;;;;66.60;24.38;;;;;;;4.75;98.50;103815.38;5072037;28;20031;-63
2022/01/18 08:38:32;;;;;;;70.70;24.95;;;;;;;4.71;97.85;103808.31;5081090;28;20013;-63
2022/01/18 08:40:59;;;;;;;60.03;24.17;;;;;;;4.78;98.19;103805.72;5072794;28;20032;-63
2022/01/18 08:43:25;;;;;;;62.65;25.15;;;;;;;4.79;98.22;103814.50;5073064;28;20277;-63
2022/01/18 08:45:51;;;;;;;67.82;26.40;;;;;;;4.80;97.93;103818.94;5073713;28;20518;-63
2022/01/18 08:48:17;;;;;;;62.10;24.77;;;;;;;4.82;98.26;103817.16;5073140;28;20037;-63
2022/01/18 08:50:42;;;;;;;65.93;23.27;;;;;;;4.89;98.72;103819.00;5071142;28;20036;-63
2022/01/18 08:53:08;;;;;;;60.67;23.20;;;;;;;4.85;98.10;103822.47;5072723;28;20120;-63
2022/01/18 08:55:34;;;;;;;55.80;23.05;;;;;;;4.90;97.92;103826.03;5072764;28;20028;-63
2022/01/18 08:58:03;;;;;;;57.42;23.88;;;;;;;4.88;98.66;103821.63;5072970;28;20033;-63
2022/01/18 09:00:31;;;;;;;61.17;25.25;;;;;;;4.92;98.34;103826.94;5072810;28;20068;-63
2022/01/18 09:02:57;;;;;;;57.97;22.70;;;;;;;4.93;98.47;103831.34;5072219;28;20029;-63
2022/01/18 09:05:24;;;;;;;59.25;22.58;;;;;;;4.77;98.50;103792.53;5071641;28;20081;-63
2022/01/18 09:07:53;;;;;;;52.30;23.08;;;;;;;4.98;98.75;103815.56;5071532;28;20031;-63
2022/01/18 09:10:19;;;;;;;52.78;22.88;;;;;;;4.96;98.33;103809.38;5073057;28;20107;-63
2022/01/18 09:12:45;;;;;;;56.50;23.85;;;;;;;5.05;98.47;103821.78;5071593;28;20099;-63
2022/01/18 09:15:13;;;;;;;59.05;22.35;;;;;;;5.10;98.65;103827.97;5072785;28;20032;-63
2022/01/18 09:17:41;;;;;;;57.78;23.10;;;;;;;5.09;98.91;103829.72;5088074;28;20483;-63
2022/01/18 09:20:09;;;;;;;53.03;22.67;;;;;;;5.10;99.11;103827.97;5072806;28;20033;-63
2022/01/18 09:22:38;;;;;;;55.45;22.48;;;;;;;5.16;98.88;103834.19;5072256;28;20390;-63
2022/01/18 09:25:06;;;;;;;59.92;24.33;;;;;;;5.16;99.19;103831.53;5071236;28;20059;-63
2022/01/18 09:27:32;;;;;;;53.80;24.40;;;;;;;5.24;98.50;103839.53;5072435;28;20035;-63
2022/01/18 09:29:57;;;;;;;46.72;23.33;;;;;;;5.27;99.26;103836.03;5072668;28;20531;-63
2022/01/18 09:32:25;;;;;;;54.33;23.25;;;;;;;5.30;99.27;103839.56;5073159;28;20060;-63
2022/01/18 09:34:52;;;;;;;47.33;23.15;;;;;;;5.34;98.59;103843.09;5052577;28;20055;-63
2022/01/18 09:37:18;;;;;;;50.38;22.92;;;;;;;5.41;98.73;103839.63;5052856;28;20021;-63
2022/01/18 09:39:44;;;;;;;43.13;21.80;;;;;;;5.40;98.91;103835.22;5052422;28;20029;-63
2022/01/18 09:42:13;;;;;;;44.72;22.25;;;;;;;5.44;98.74;103844.91;5067819;28;20045;-63
2022/01/18 09:44:39;;;;;;;47.28;23.27;;;;;;;5.43;98.13;103841.41;5068053;28;20029;-63
2022/01/18 09:47:05;;;;;;;43.40;21.42;;;;;;;5.43;98.39;103841.41;5072041;28;20529;-63
2022/01/18 09:49:32;;;;;;;43.85;21.83;;;;;;;5.45;98.98;103850.22;5071684;28;20047;-63
2022/01/18 09:51:58;;;;;;;48.03;23.77;;;;;;;5.50;99.02;103852.00;5072015;28;20103;-63
2022/01/18 09:54:25;;;;;;;43.97;24.20;;;;;;;5.45;98.51;103838.78;5071619;28;20131;-63
2022/01/18 09:56:51;;;;;;;49.53;24.45;;;;;;;5.57;98.33;103843.25;5072374;28;20071;-63
2022/01/18 09:59:17;;;;;;;49.65;23.98;;;;;;;5.60;98.83;103849.44;5072020;28;20052;-63
2022/01/18 10:01:44;;;;;;;46.95;23.75;;;;;;;5.62;98.22;103854.75;5071416;28;20211;-63
2022/01/18 10:04:17;;;;;;;72.90;31.42;;;;;;;5.45;98.31;103831.75;5071507;28;20766;-63
2022/01/18 10:06:45;;;;;;;66.38;29.77;;;;;;;5.59;98.31;103854.69;5071788;28;20119;-63
2022/01/18 10:09:15;;;;;;;74.38;32.45;;;;;;;5.58;98.32;103852.94;5072170;28;20016;-63
2022/01/18 10:12:00;;;;;;;67.50;31.73;;;;;;;5.64;98.54;103850.34;5071864;28;20531;-63
2022/01/18 10:14:26;;;;;;;64.97;30.27;;;;;;;5.67;98.90;103853.88;5071351;28;20077;-63
2022/01/18 10:16:51;;;;;;;68.53;30.33;;;;;;;5.76;98.57;103853.03;5071816;28;20017;-63
2022/01/18 10:19:32;;;;;;;67.13;29.48;;;;;;;5.84;98.21;103861.00;5070461;28;20369;-63
2022/01/18 10:22:40;;;;;;;65.82;29.33;;;;;;;5.93;98.55;103855.81;5070636;28;20027;-63
2022/01/18 10:25:20;;;;;;;73.07;30.85;;;;;;;5.98;98.30;103850.56;5068340;28;20035;-63
2022/01/18 10:27:49;;;;;;;61.85;27.98;;;;;;;5.91;98.34;103821.44;5071521;28;20059;-63
2022/01/18 10:30:22;;;;;;;47.05;22.23;;;;;;;6.14;97.74;103841.81;5053709;28;20032;-63
2022/01/18 10:33:16;;;;;;;48.03;21.67;;;;;;;6.27;97.42;103843.63;5071686;28;20108;-63
2022/01/18 10:36:14;;;;;;;43.53;20.00;;;;;;;6.45;97.16;103844.56;5071353;28;20020;-63
2022/01/18 10:38:42;;;;;;;40.50;19.65;;;;;;;6.69;96.77;103825.22;5070192;28;20512;-63
2022/01/18 10:41:27;;;;;;;35.42;20.33;;;;;;;7.37;94.64;103836.66;5071540;28;20032;-63
2022/01/18 10:44:06;;;;;;;40.63;18.55;;;;;;;8.24;92.52;103838.19;5070521;28;20029;-63
2022/01/18 10:46:37;;;;;;;31.17;17.52;;;;;;;8.90;89.46;103830.69;5071047;28;20024;-63
2022/01/18 10:49:08;;;;;;;37.33;18.02;;;;;;;9.41;86.92;103828.47;5071570;28;20020;-63
2022/01/18 10:51:37;;;;;;;32.55;16.02;;;;;;;9.78;83.29;103823.63;5071447;28;20360;-63
2022/01/18 10:54:07;;;;;;;32.17;16.40;;;;;;;10.35;81.46;103817.59;5071295;28;20035;-63
2022/01/18 10:56:44;;;;;;;29.02;15.65;;;;;;;10.76;81.76;103817.84;5069679;28;20036;-64
2022/01/18 10:59:23;;;;;;;29.67;15.10;;;;;;;11.19;80.30;103811.81;5070956;28;20114;-64
2022/01/18 11:02:15;;;;;;;32.97;16.25;;;;;;;11.63;79.25;103813.63;5071460;28;20052;-64
2022/01/18 11:04:47;;;;;;;32.67;16.75;;;;;;;11.77;73.55;103814.25;5071325;28;20419;-64
2022/01/18 11:07:15;;;;;;;35.40;16.67;;;;;;;11.88;72.37;103816.72;5070708;28;20425;-64
2022/01/18 11:09:41;;;;;;;33.10;17.17;;;;;;;12.04;72.30;103807.47;5071241;28;20078;-64
2022/01/18 11:12:08;;;;;;;28.63;15.20;;;;;;;12.36;70.98;103799.69;5070335;28;20025;-64
2022/01/18 11:14:37;;;;;;;31.50;15.48;;;;;;;12.58;70.50;103808.03;5070904;28;20107;-64
2022/01/18 11:17:04;;;;;;;31.52;15.95;;;;;;;12.96;69.00;103810.63;5071223;28;20032;-64
2022/01/18 11:19:33;;;;;;;29.73;13.48;;;;;;;12.73;68.89;103810.34;5070945;28;20120;-63
2022/01/18 11:22:03;;;;;;;25.13;13.65;;;;;;;12.04;69.88;103812.81;5071321;28;20317;-64
2022/01/18 11:24:31;;;;;;;30.90;14.40;;;;;;;11.91;70.58;103803.34;5071167;28;20028;-63
2022/01/18 11:26:57;;;;;;;31.17;15.55;;;;;;;11.89;70.27;103806.94;5071152;28;20028;-63
2022/01/18 11:29:22;;;;;;;26.90;14.18;;;;;;;12.08;69.78;103786.06;5070539;28;20056;-63
2022/01/18 11:31:53;;;;;;;26.92;14.93;;;;;;;12.45;68.79;103795.00;5070773;28;20059;-64
2022/01/18 11:34:56;;;;;;;27.52;13.25;;;;;;;12.48;68.55;103794.91;5071085;28;20451;-63
2022/01/18 11:37:30;;;;;;;27.40;14.13;;;;;;;11.79;70.44;103798.19;5066960;28;20037;-63
2022/01/18 11:40:03;;;;;;;29.65;14.13;;;;;;;11.41;69.61;103798.97;5074281;28;20538;-63
2022/01/18 11:43:02;;;;;;;34.63;15.70;;;;;;;12.02;72.78;103777.28;5074323;28;20421;-64
2022/01/18 11:45:30;;;;;;;31.13;15.07;;;;;;;12.34;68.34;103786.34;5070517;28;20040;-63
2022/01/18 11:48:06;;;;;;;30.83;13.77;;;;;;;12.12;69.25;103785.97;5073056;28;20430;-63
2022/01/18 11:50:37;;;;;;;29.45;13.30;;;;;;;11.67;69.81;103788.66;5073820;28;20032;-63
2022/01/18 11:53:17;;;;;;;36.60;14.18;;;;;;;11.65;70.83;103778.94;5073010;28;20119;-63
2022/01/18 11:55:45;;;;;;;29.80;14.85;;;;;;;11.54;69.19;103782.72;5074170;28;20205;-63
2022/01/18 11:58:12;;;;;;;30.85;14.27;;;;;;;11.14;70.23;103775.47;5073731;28;20533;-63
2022/01/18 12:00:49;;;;;;;30.75;14.73;;;;;;;10.87;72.83;103794.59;5073342;28;20049;-63
2022/01/18 12:03:21;;;;;;;34.55;15.75;;;;;;;10.62;72.77;103784.38;5074120;28;20515;-63
2022/01/18 12:05:48;;;;;;;33.38;15.65;;;;;;;10.42;72.88;103783.81;5072764;28;20058;-63
2022/01/18 12:08:43;;;;;;;36.03;15.93;;;;;;;10.37;74.78;103775.00;5073913;28;20391;-63
2022/01/18 12:11:36;;;;;;;38.47;16.77;;;;;;;9.95;75.14;103762.25;5072628;28;20051;-63
2022/01/18 12:14:04;;;;;;;32.53;14.60;;;;;;;10.03;75.05;103770.16;5071132;28;20077;-63
2022/01/18 12:16:30;;;;;;;31.02;14.55;;;;;;;10.22;74.15;103763.66;5073954;28;20031;-63
2022/01/18 12:19:05;;;;;;;32.60;15.25;;;;;;;10.55;73.04;103766.72;5073704;28;20376;-63
2022/01/18 12:21:32;;;;;;;34.28;13.88;;;;;;;10.89;72.29;103760.84;5073045;28;20033;-63
2022/01/18 12:24:15;;;;;;;28.77;14.02;;;;;;;11.83;70.89;103773.25;5074046;28;20032;-63
2022/01/18 12:26:45;;;;;;;33.85;13.85;;;;;;;12.49;66.81;103771.75;5072355;28;20478;-64
2022/01/18 12:34:47;;;;;;;29.98;12.30;;;;;;;14.08;61.61;103758.50;5074096;28;20036;-64
2022/01/18 12:37:21;;;;;;;27.92;12.07;;;;;;;13.82;60.38;103754.84;5072578;28;20031;-64
2022/01/18 12:40:11;;;;;;;34.67;13.13;;;;;;;13.27;62.58;103758.22;5073211;28;20079;-63
2022/01/18 12:45:05;;;;;;;27.40;12.43;;;;;;;12.76;63.71;103754.19;5073298;28;20024;-63
2022/01/18 12:47:35;;;;;;;27.20;13.15;;;;;;;12.42;64.27;103754.16;5071906;28;20027;-63
2022/01/18 12:50:02;;;;;;;29.38;12.98;;;;;;;12.03;65.33;103748.84;5072972;28;20032;-63
2022/01/18 12:52:48;;;;;;;29.45;12.40;;;;;;;11.87;68.16;103747.41;5073140;28;20537;-63